createdAt,value
2018-11-06T00:00:16.787Z,1.40
2018-11-06T00:00:53.133Z,1.27
2018-11-06T00:01:28.779Z,1.20
2018-11-06T00:02:04.323Z,1.77
2018-11-06T00:02:39.601Z,1.30
2018-11-06T00:03:19.986Z,1.87
2018-11-06T00:04:00.115Z,2.73
2018-11-06T00:04:40.348Z,2.33
2018-11-06T00:05:17.757Z,1.73
2018-11-06T00:05:53.643Z,1.87
2018-11-06T00:06:29.190Z,1.00
2018-11-06T00:07:04.600Z,1.30
2018-11-06T00:07:40.026Z,2.30
2018-11-06T00:08:15.521Z,2.43
2018-11-06T00:08:51.106Z,2.90
2018-11-06T00:09:26.610Z,1.47
2018-11-06T00:10:01.880Z,1.10
2018-11-06T00:10:37.215Z,2.97
2018-11-06T00:11:13.097Z,1.37
2018-11-06T00:11:48.208Z,1.73
2018-11-06T00:12:23.412Z,1.30
2018-11-06T00:12:58.862Z,1.10
2018-11-06T00:13:34.518Z,1.70
2018-11-06T00:14:10.057Z,1.10
2018-11-06T00:14:45.509Z,1.30
2018-11-06T00:15:20.734Z,5.80
2018-11-06T00:15:56.101Z,1.20
2018-11-06T00:16:31.672Z,1.33
2018-11-06T00:17:07.212Z,1.03
2018-11-06T00:17:42.482Z,1.70
2018-11-06T00:18:18.661Z,2.33
2018-11-06T00:18:54.192Z,1.33
2018-11-06T00:19:29.433Z,1.43
2018-11-06T00:20:05.273Z,2.70
2018-11-06T00:20:40.630Z,1.23
2018-11-06T00:21:15.762Z,1.70
2018-11-06T00:21:51.327Z,1.40
2018-11-06T00:22:26.782Z,1.60
2018-11-06T00:23:02.232Z,1.33
2018-11-06T00:23:37.824Z,1.30
2018-11-06T00:24:13.091Z,1.40
2018-11-06T00:24:48.436Z,1.60
2018-11-06T00:25:23.678Z,3.80
2018-11-06T00:25:59.065Z,1.40
2018-11-06T00:26:34.353Z,2.47
2018-11-06T00:27:09.949Z,1.00
2018-11-06T00:27:45.294Z,2.23
2018-11-06T00:28:22.163Z,1.50
2018-11-06T00:28:57.715Z,1.30
2018-11-06T00:29:33.045Z,1.30
2018-11-06T00:30:11.194Z,1.23
2018-11-06T00:30:47.033Z,1.50
2018-11-06T00:31:22.405Z,1.20
2018-11-06T00:31:58.040Z,1.57
2018-11-06T00:32:33.390Z,1.33
2018-11-06T00:33:08.922Z,1.10
2018-11-06T00:33:44.539Z,1.87
2018-11-06T00:34:20.181Z,1.27
2018-11-06T00:34:55.807Z,1.90
2018-11-06T00:35:31.274Z,2.77
2018-11-06T00:36:06.846Z,2.20
2018-11-06T00:36:42.258Z,1.30
2018-11-06T00:37:17.612Z,1.20
2018-11-06T00:37:53.677Z,1.33
2018-11-06T00:38:29.070Z,1.13
2018-11-06T00:39:04.642Z,1.87
2018-11-06T00:39:40.296Z,1.17
2018-11-06T00:40:16.065Z,1.10
2018-11-06T00:40:51.674Z,1.33
2018-11-06T00:41:27.033Z,1.67
2018-11-06T00:42:02.503Z,2.87
2018-11-06T00:42:38.153Z,0.97
2018-11-06T00:43:13.763Z,2.30
2018-11-06T00:43:49.232Z,1.37
2018-11-06T00:44:24.653Z,2.20
2018-11-06T00:45:00.057Z,1.33
2018-11-06T00:45:35.344Z,1.43
2018-11-06T00:46:10.807Z,1.37
2018-11-06T00:46:46.571Z,1.30
2018-11-06T00:47:21.736Z,2.40
2018-11-06T00:47:57.205Z,1.10
2018-11-06T00:48:32.529Z,1.33
2018-11-06T00:49:07.937Z,1.60
2018-11-06T00:49:43.430Z,2.23
2018-11-06T00:50:19.353Z,1.10
2018-11-06T00:50:54.805Z,1.10
2018-11-06T00:51:30.668Z,1.10
2018-11-06T00:52:06.570Z,1.53
2018-11-06T00:52:43.761Z,1.20
2018-11-06T00:53:19.210Z,1.43
2018-11-06T00:53:54.876Z,1.13
2018-11-06T00:54:30.179Z,1.27
2018-11-06T00:55:06.352Z,1.23
2018-11-06T00:55:41.941Z,1.20
2018-11-06T00:56:17.521Z,1.07
2018-11-06T00:56:52.855Z,1.43
2018-11-06T00:57:28.309Z,1.03
2018-11-06T00:58:03.659Z,0.80
2018-11-06T00:58:39.283Z,1.30
2018-11-06T00:59:14.688Z,1.50
2018-11-06T00:59:50.932Z,1.77
2018-11-06T01:00:25.635Z,1.60
2018-11-06T01:01:01.186Z,1.27
2018-11-06T01:01:36.676Z,2.77
2018-11-06T01:02:12.020Z,1.60
2018-11-06T01:02:48.060Z,1.80
2018-11-06T01:03:27.498Z,1.00
2018-11-06T01:04:07.431Z,1.57
2018-11-06T01:04:42.998Z,1.50
2018-11-06T01:05:19.086Z,1.83
2018-11-06T01:05:54.502Z,1.43
2018-11-06T01:06:30.322Z,1.13
2018-11-06T01:07:05.890Z,1.77
2018-11-06T01:07:41.404Z,1.53
2018-11-06T01:08:16.675Z,1.40
2018-11-06T01:08:52.207Z,1.10
2018-11-06T01:09:27.434Z,1.97
2018-11-06T01:10:03.009Z,1.10
2018-11-06T01:10:38.894Z,1.20
2018-11-06T01:11:14.314Z,1.33
2018-11-06T01:11:49.701Z,1.83
2018-11-06T01:12:26.000Z,1.37
2018-11-06T01:13:01.313Z,1.30
2018-11-06T01:13:36.729Z,1.03
2018-11-06T01:14:12.215Z,1.83
2018-11-06T01:14:47.912Z,1.30
2018-11-06T01:15:23.289Z,1.10
2018-11-06T01:15:58.863Z,1.80
2018-11-06T01:16:34.305Z,1.30
2018-11-06T01:17:09.768Z,0.90
2018-11-06T01:17:46.355Z,1.10
2018-11-06T01:18:21.749Z,1.23
2018-11-06T01:18:57.224Z,4.07
2018-11-06T01:19:32.675Z,1.23
2018-11-06T01:20:11.409Z,1.00
2018-11-06T01:20:47.293Z,1.80
2018-11-06T01:21:22.902Z,1.53
2018-11-06T01:21:58.474Z,1.20
2018-11-06T01:22:33.744Z,2.47
2018-11-06T01:23:09.378Z,2.80
2018-11-06T01:23:44.893Z,1.10
2018-11-06T01:24:20.357Z,1.70
2018-11-06T01:24:55.828Z,1.77
2018-11-06T01:25:31.112Z,1.03
2018-11-06T01:26:07.039Z,1.60
2018-11-06T01:26:42.437Z,1.63
2018-11-06T01:27:18.010Z,1.93
2018-11-06T01:27:53.548Z,1.17
2018-11-06T01:28:29.072Z,0.80
2018-11-06T01:29:04.741Z,1.00
2018-11-06T01:29:40.305Z,3.10
2018-11-06T01:30:20.418Z,4.10
2018-11-06T01:30:56.003Z,6.83
2018-11-06T01:31:31.563Z,2.37
2018-11-06T01:32:07.425Z,8.00
2018-11-06T01:32:43.387Z,9.83
2018-11-06T01:33:18.672Z,5.97
2018-11-06T01:33:54.352Z,5.30
2018-11-06T01:34:29.713Z,9.67
2018-11-06T01:35:05.710Z,7.40
2018-11-06T01:35:41.013Z,14.63
2018-11-06T01:36:16.489Z,5.67
2018-11-06T01:36:51.672Z,7.70
2018-11-06T01:37:27.233Z,10.70
2018-11-06T01:38:02.817Z,19.80
2018-11-06T01:38:38.247Z,14.63
2018-11-06T01:39:13.684Z,16.53
2018-11-06T01:39:49.308Z,15.77
2018-11-06T01:40:24.726Z,18.57
2018-11-06T01:41:00.031Z,16.37
2018-11-06T01:41:35.661Z,20.10
2018-11-06T01:42:11.038Z,17.57
2018-11-06T01:42:46.817Z,28.00
2018-11-06T01:43:22.144Z,20.90
2018-11-06T01:43:57.533Z,20.70
2018-11-06T01:44:32.949Z,20.40
2018-11-06T01:45:11.298Z,27.20
2018-11-06T01:45:46.590Z,18.47
2018-11-06T01:46:22.194Z,28.53
2018-11-06T01:46:57.848Z,29.57
2018-11-06T01:47:33.413Z,36.00
2018-11-06T01:48:09.003Z,37.63
2018-11-06T01:48:44.357Z,29.23
2018-11-06T01:49:19.961Z,28.87
2018-11-06T01:49:55.329Z,27.67
2018-11-06T01:50:30.652Z,29.83
2018-11-06T01:51:06.214Z,25.23
2018-11-06T01:51:41.744Z,26.47
2018-11-06T01:52:17.142Z,25.33
2018-11-06T01:52:52.669Z,26.90
2018-11-06T01:53:28.064Z,21.87
2018-11-06T01:54:03.552Z,33.07
2018-11-06T01:54:38.955Z,18.27
2018-11-06T01:55:14.394Z,21.77
2018-11-06T01:55:49.711Z,28.27
2018-11-06T01:56:25.230Z,22.10
2018-11-06T01:57:00.735Z,25.60
2018-11-06T01:57:36.246Z,30.50
2018-11-06T01:58:11.860Z,18.10
2018-11-06T01:58:47.408Z,22.23
2018-11-06T01:59:22.644Z,25.10
2018-11-06T01:59:57.989Z,21.70
2018-11-06T02:00:33.504Z,24.00
2018-11-06T02:01:08.943Z,15.43
2018-11-06T02:01:44.259Z,18.20
2018-11-06T02:02:19.748Z,15.60
2018-11-06T02:02:55.064Z,20.17
2018-11-06T02:03:30.525Z,15.57
2018-11-06T02:04:05.997Z,15.43
2018-11-06T02:04:41.504Z,16.37
2018-11-06T02:05:17.815Z,21.97
2018-11-06T02:05:53.443Z,23.00
2018-11-06T02:06:28.636Z,21.70
2018-11-06T02:07:04.479Z,14.20
2018-11-06T02:07:39.906Z,14.70
2018-11-06T02:08:15.366Z,10.70
2018-11-06T02:08:50.629Z,17.33
2018-11-06T02:09:26.138Z,17.67
2018-11-06T02:10:01.522Z,17.97
2018-11-06T02:10:37.574Z,15.00
2018-11-06T02:11:13.003Z,14.13
2018-11-06T02:11:48.391Z,11.47
2018-11-06T02:12:24.372Z,13.03
2018-11-06T02:12:59.961Z,15.23
2018-11-06T02:13:35.211Z,10.27
2018-11-06T02:14:11.089Z,11.97
2018-11-06T02:14:46.722Z,15.63
2018-11-06T02:15:22.093Z,9.03
2018-11-06T02:15:57.495Z,18.87
2018-11-06T02:16:33.006Z,7.20
2018-11-06T02:17:08.504Z,14.70
2018-11-06T02:17:45.269Z,10.17
2018-11-06T02:18:20.667Z,8.20
2018-11-06T02:18:56.099Z,12.27
2018-11-06T02:19:31.671Z,6.10
2018-11-06T02:20:07.758Z,7.20
2018-11-06T02:20:43.144Z,13.40
2018-11-06T02:21:18.692Z,7.27
2018-11-06T02:21:54.637Z,9.33
2018-11-06T02:22:30.113Z,8.57
2018-11-06T02:23:05.570Z,8.30
2018-11-06T02:23:41.074Z,8.77
2018-11-06T02:24:16.903Z,11.77
2018-11-06T02:24:52.274Z,8.40
2018-11-06T02:25:27.599Z,6.00
2018-11-06T02:26:03.318Z,6.80
2018-11-06T02:26:38.598Z,4.53
2018-11-06T02:27:13.941Z,5.10
2018-11-06T02:27:49.232Z,7.07
2018-11-06T02:28:24.636Z,4.70
2018-11-06T02:29:00.186Z,5.73
2018-11-06T02:29:35.860Z,5.00
2018-11-06T02:30:13.552Z,3.07
2018-11-06T02:30:48.910Z,5.87
2018-11-06T02:31:24.412Z,6.50
2018-11-06T02:31:59.831Z,5.20
2018-11-06T02:32:35.458Z,6.27
2018-11-06T02:33:10.775Z,11.80
2018-11-06T02:33:46.305Z,5.40
2018-11-06T02:34:21.904Z,4.93
2018-11-06T02:34:57.432Z,3.80
2018-11-06T02:35:33.000Z,4.33
2018-11-06T02:36:08.313Z,4.17
2018-11-06T02:36:43.759Z,5.60
2018-11-06T02:37:19.199Z,6.00
2018-11-06T02:37:54.554Z,4.27
2018-11-06T02:38:29.992Z,6.77
2018-11-06T02:39:05.621Z,5.03
2018-11-06T02:39:40.954Z,3.90
2018-11-06T02:40:17.294Z,4.50
2018-11-06T02:40:52.775Z,5.20
2018-11-06T02:41:28.152Z,5.27
2018-11-06T02:42:03.516Z,7.20
2018-11-06T02:42:39.115Z,2.73
2018-11-06T02:43:14.402Z,2.50
2018-11-06T02:43:49.858Z,4.03
2018-11-06T02:44:25.117Z,4.13
2018-11-06T02:45:00.591Z,3.37
2018-11-06T02:45:36.070Z,2.37
2018-11-06T02:46:11.461Z,2.63
2018-11-06T02:46:46.851Z,4.60
2018-11-06T02:47:22.303Z,4.70
2018-11-06T02:47:57.733Z,5.60
2018-11-06T02:48:33.123Z,3.20
2018-11-06T02:49:08.399Z,3.40
2018-11-06T02:49:43.638Z,3.67
2018-11-06T02:50:18.892Z,4.37
2018-11-06T02:50:54.363Z,6.50
2018-11-06T02:51:29.783Z,1.53
2018-11-06T02:52:05.334Z,3.13
2018-11-06T02:52:41.339Z,3.50
2018-11-06T02:53:16.695Z,2.87
2018-11-06T02:53:52.004Z,3.87
2018-11-06T02:54:27.407Z,5.10
2018-11-06T02:55:02.825Z,3.47
2018-11-06T02:55:38.368Z,3.13
2018-11-06T02:56:13.551Z,6.10
2018-11-06T02:56:49.397Z,1.73
2018-11-06T02:57:24.796Z,1.77
2018-11-06T02:58:00.041Z,3.50
2018-11-06T02:58:35.688Z,3.43
2018-11-06T02:59:11.147Z,2.23
2018-11-06T02:59:46.548Z,1.90
2018-11-06T03:00:22.015Z,1.87
2018-11-06T03:00:57.562Z,2.83
2018-11-06T03:01:32.989Z,3.57
2018-11-06T03:02:08.372Z,5.30
2018-11-06T03:02:44.675Z,4.60
2018-11-06T03:03:19.981Z,1.93
2018-11-06T03:03:55.424Z,4.63
2018-11-06T03:04:30.781Z,1.93
2018-11-06T03:05:06.231Z,3.70
2018-11-06T03:05:41.723Z,1.70
2018-11-06T03:06:17.285Z,3.67
2018-11-06T03:06:52.686Z,1.87
2018-11-06T03:07:28.200Z,1.97
2018-11-06T03:08:03.434Z,3.30
2018-11-06T03:08:38.751Z,3.33
2018-11-06T03:09:14.033Z,1.77
2018-11-06T03:09:49.573Z,1.97
2018-11-06T03:10:25.121Z,2.40
2018-11-06T03:11:00.584Z,1.80
2018-11-06T03:11:35.895Z,1.63
2018-11-06T03:12:11.209Z,2.73
2018-11-06T03:12:46.686Z,1.27
2018-11-06T03:13:21.911Z,3.60
2018-11-06T03:13:57.110Z,3.40
2018-11-06T03:14:32.562Z,1.37
2018-11-06T03:15:09.061Z,2.30
2018-11-06T03:15:44.909Z,4.33
2018-11-06T03:16:20.208Z,3.63
2018-11-06T03:16:56.113Z,2.00
2018-11-06T03:17:31.776Z,2.70
2018-11-06T03:18:07.795Z,2.70
2018-11-06T03:18:43.416Z,4.67
2018-11-06T03:19:18.883Z,1.77
2018-11-06T03:19:54.270Z,1.87
2018-11-06T03:20:29.753Z,1.63
2018-11-06T03:21:05.353Z,1.60
2018-11-06T03:21:40.721Z,1.73
2018-11-06T03:22:16.254Z,1.40
2018-11-06T03:22:51.755Z,2.00
2018-11-06T03:23:27.281Z,2.30
2018-11-06T03:24:02.988Z,1.77
2018-11-06T03:24:38.373Z,1.10
2018-11-06T03:25:14.102Z,1.97
2018-11-06T03:25:49.610Z,1.57
2018-11-06T03:26:24.969Z,1.97
2018-11-06T03:27:00.540Z,1.60
2018-11-06T03:27:35.841Z,2.07
2018-11-06T03:28:11.181Z,1.13
2018-11-06T03:28:46.827Z,1.57
2018-11-06T03:29:22.137Z,1.90
2018-11-06T03:29:57.571Z,2.60
2018-11-06T03:30:33.171Z,1.57
2018-11-06T03:31:08.733Z,1.43
2018-11-06T03:31:44.267Z,1.20
2018-11-06T03:32:19.713Z,1.97
2018-11-06T03:32:55.003Z,2.33
2018-11-06T03:33:30.467Z,1.30
2018-11-06T03:34:05.892Z,4.40
2018-11-06T03:34:41.613Z,1.87
2018-11-06T03:35:17.045Z,1.50
2018-11-06T03:35:52.555Z,1.50
2018-11-06T03:36:27.913Z,1.57
2018-11-06T03:37:03.247Z,1.97
2018-11-06T03:37:39.378Z,1.43
2018-11-06T03:38:14.752Z,1.20
2018-11-06T03:38:50.272Z,1.67
2018-11-06T03:39:25.474Z,1.90
2018-11-06T03:40:00.901Z,1.37
2018-11-06T03:40:36.418Z,1.37
2018-11-06T03:41:11.848Z,1.27
2018-11-06T03:41:47.069Z,1.00
2018-11-06T03:42:22.551Z,1.30
2018-11-06T03:42:58.253Z,1.50
2018-11-06T03:43:33.590Z,2.60
2018-11-06T03:44:09.247Z,1.80
2018-11-06T03:44:44.830Z,1.60
2018-11-06T03:45:20.373Z,1.37
2018-11-06T03:45:55.849Z,1.73
2018-11-06T03:46:31.118Z,2.33
2018-11-06T03:47:06.640Z,2.00
2018-11-06T03:47:42.843Z,1.40
2018-11-06T03:48:18.391Z,1.00
2018-11-06T03:48:53.707Z,1.83
2018-11-06T03:49:29.256Z,1.80
2018-11-06T03:50:04.721Z,2.00
2018-11-06T03:50:40.040Z,1.97
2018-11-06T03:51:15.461Z,1.30
2018-11-06T03:51:50.993Z,1.33
2018-11-06T03:52:26.519Z,1.47
2018-11-06T03:53:01.996Z,1.83
2018-11-06T03:53:37.499Z,2.07
2018-11-06T03:54:12.978Z,0.90
2018-11-06T03:54:48.388Z,2.20
2018-11-06T03:55:23.826Z,2.53
2018-11-06T03:55:59.070Z,0.90
2018-11-06T03:56:34.573Z,1.77
2018-11-06T03:57:09.941Z,1.70
2018-11-06T03:57:45.507Z,1.50
2018-11-06T03:58:20.778Z,1.63
2018-11-06T03:58:56.176Z,1.30
2018-11-06T03:59:31.576Z,1.67
2018-11-06T04:00:09.630Z,1.47
2018-11-06T04:00:44.962Z,1.27
2018-11-06T04:01:20.343Z,1.20
2018-11-06T04:01:55.789Z,1.30
2018-11-06T04:02:31.203Z,1.80
2018-11-06T04:03:07.192Z,1.13
2018-11-06T04:03:42.713Z,1.33
2018-11-06T04:04:18.090Z,1.23
2018-11-06T04:04:53.600Z,2.23
2018-11-06T04:05:29.025Z,1.23
2018-11-06T04:06:04.593Z,1.97
2018-11-06T04:06:40.004Z,1.70
2018-11-06T04:07:15.275Z,1.90
2018-11-06T04:07:50.589Z,2.50
2018-11-06T04:08:26.123Z,1.43
2018-11-06T04:09:01.476Z,1.10
2018-11-06T04:09:36.864Z,1.00
2018-11-06T04:10:13.792Z,0.93
2018-11-06T04:10:49.257Z,1.03
2018-11-06T04:11:24.720Z,1.13
2018-11-06T04:12:00.111Z,1.43
2018-11-06T04:12:35.515Z,1.33
2018-11-06T04:13:10.945Z,1.50
2018-11-06T04:13:46.310Z,1.37
2018-11-06T04:14:21.923Z,1.27
2018-11-06T04:14:57.293Z,2.43
2018-11-06T04:15:32.878Z,1.77
2018-11-06T04:16:08.139Z,2.53
2018-11-06T04:16:43.549Z,1.33
2018-11-06T04:17:18.826Z,1.23
2018-11-06T04:17:54.208Z,1.13
2018-11-06T04:18:29.627Z,2.60
2018-11-06T04:19:05.064Z,1.40
2018-11-06T04:19:40.273Z,1.63
2018-11-06T04:20:15.722Z,1.23
2018-11-06T04:20:51.110Z,1.73
2018-11-06T04:21:31.776Z,1.40
2018-11-06T04:22:07.581Z,1.33
2018-11-06T04:22:43.590Z,1.53
2018-11-06T04:23:18.757Z,1.90
2018-11-06T04:23:53.969Z,1.70
2018-11-06T04:24:29.429Z,1.63
2018-11-06T04:25:04.796Z,1.60
2018-11-06T04:25:40.358Z,1.67
2018-11-06T04:26:15.721Z,1.10
2018-11-06T04:26:51.127Z,1.17
2018-11-06T04:27:26.530Z,1.57
2018-11-06T04:28:02.064Z,1.20
2018-11-06T04:28:37.963Z,1.00
2018-11-06T04:29:13.804Z,1.60
2018-11-06T04:29:49.177Z,1.27
2018-11-06T04:30:24.786Z,1.00
2018-11-06T04:31:00.257Z,0.90
2018-11-06T04:31:36.481Z,0.93
2018-11-06T04:32:11.830Z,1.07
2018-11-06T04:32:47.202Z,1.77
2018-11-06T04:33:22.585Z,1.30
2018-11-06T04:33:58.128Z,1.77
2018-11-06T04:34:33.521Z,1.67
2018-11-06T04:35:09.709Z,1.50
2018-11-06T04:35:44.924Z,1.10
2018-11-06T04:36:20.469Z,1.90
2018-11-06T04:36:55.924Z,1.40
2018-11-06T04:37:31.305Z,1.53
2018-11-06T04:38:06.993Z,3.40
2018-11-06T04:38:42.396Z,1.10
2018-11-06T04:39:17.842Z,2.13
2018-11-06T04:39:53.310Z,1.00
2018-11-06T04:40:28.617Z,1.20
2018-11-06T04:41:04.175Z,0.80
2018-11-06T04:41:39.442Z,1.27
2018-11-06T04:42:14.769Z,1.30
2018-11-06T04:42:50.581Z,1.97
2018-11-06T04:43:26.156Z,1.13
2018-11-06T04:44:01.470Z,1.40
2018-11-06T04:44:37.455Z,0.80
2018-11-06T04:45:13.998Z,1.60
2018-11-06T04:45:49.645Z,1.30
2018-11-06T04:46:25.643Z,0.93
2018-11-06T04:47:01.096Z,1.17
2018-11-06T04:47:36.611Z,1.40
2018-11-06T04:48:11.975Z,1.43
2018-11-06T04:48:47.195Z,1.10
2018-11-06T04:49:22.723Z,1.30
2018-11-06T04:49:58.485Z,1.30
2018-11-06T04:50:33.740Z,1.63
2018-11-06T04:51:09.265Z,1.73
2018-11-06T04:51:44.627Z,1.30
2018-11-06T04:52:20.191Z,1.13
2018-11-06T04:52:55.701Z,2.00
2018-11-06T04:53:34.152Z,0.80
2018-11-06T04:54:09.528Z,1.43
2018-11-06T04:54:44.975Z,2.00
2018-11-06T04:55:20.218Z,1.40
2018-11-06T04:55:55.687Z,1.27
2018-11-06T04:56:32.164Z,1.27
2018-11-06T04:57:07.591Z,1.30
2018-11-06T04:57:43.717Z,1.90
2018-11-06T04:58:19.065Z,1.10
2018-11-06T04:58:54.396Z,1.03
2018-11-06T04:59:29.927Z,1.63
2018-11-06T05:00:05.650Z,1.60
2018-11-06T05:00:40.980Z,2.43
2018-11-06T05:01:16.329Z,2.00
2018-11-06T05:01:51.885Z,1.47
2018-11-06T05:02:27.060Z,1.53
2018-11-06T05:03:02.575Z,1.03
2018-11-06T05:03:42.724Z,1.00
2018-11-06T05:04:18.211Z,1.03
2018-11-06T05:04:53.699Z,1.20
2018-11-06T05:05:29.199Z,1.20
2018-11-06T05:06:04.729Z,1.60
2018-11-06T05:06:40.007Z,1.03
2018-11-06T05:07:15.410Z,1.17
2018-11-06T05:07:50.626Z,1.07
2018-11-06T05:08:26.412Z,1.10
2018-11-06T05:09:01.857Z,1.47
2018-11-06T05:09:37.115Z,2.03
2018-11-06T05:10:15.508Z,1.70
2018-11-06T05:10:51.078Z,0.87
2018-11-06T05:11:26.630Z,1.00
2018-11-06T05:12:02.351Z,1.67
2018-11-06T05:12:38.740Z,1.23
2018-11-06T05:13:14.460Z,1.17
2018-11-06T05:13:49.728Z,1.87
2018-11-06T05:14:25.481Z,1.00
2018-11-06T05:15:01.265Z,1.17
2018-11-06T05:15:36.628Z,1.03
2018-11-06T05:16:12.042Z,1.20
2018-11-06T05:16:47.485Z,2.10
2018-11-06T05:17:22.887Z,1.60
2018-11-06T05:17:58.570Z,1.20
2018-11-06T05:18:33.983Z,0.80
2018-11-06T05:19:09.287Z,1.73
2018-11-06T05:19:44.789Z,1.20
2018-11-06T05:20:20.067Z,1.70
2018-11-06T05:20:55.903Z,1.03
2018-11-06T05:21:31.014Z,1.30
2018-11-06T05:22:07.251Z,1.00
2018-11-06T05:22:43.194Z,0.87
2018-11-06T05:23:18.829Z,0.67
2018-11-06T05:23:54.264Z,1.27
2018-11-06T05:24:29.740Z,1.10
2018-11-06T05:25:05.178Z,1.47
2018-11-06T05:25:40.773Z,1.50
2018-11-06T05:26:16.240Z,1.43
2018-11-06T05:26:51.500Z,0.80
2018-11-06T05:27:26.860Z,1.30
2018-11-06T05:28:02.078Z,1.53
2018-11-06T05:28:37.677Z,1.10
2018-11-06T05:29:12.934Z,1.40
2018-11-06T05:29:48.641Z,0.90
2018-11-06T05:30:23.988Z,0.87
2018-11-06T05:30:59.988Z,1.07
2018-11-06T05:31:35.501Z,1.67
2018-11-06T05:32:10.858Z,1.87
2018-11-06T05:32:46.198Z,1.10
2018-11-06T05:33:21.483Z,1.73
2018-11-06T05:33:56.735Z,1.33
2018-11-06T05:34:32.122Z,2.57
2018-11-06T05:35:09.223Z,1.77
2018-11-06T05:35:44.431Z,1.10
2018-11-06T05:36:19.863Z,1.30
2018-11-06T05:36:55.456Z,3.43
2018-11-06T05:37:30.690Z,1.27
2018-11-06T05:38:06.654Z,1.10
2018-11-06T05:38:42.039Z,1.30
2018-11-06T05:39:17.453Z,1.57
2018-11-06T05:40:02.874Z,1.03
2018-11-06T05:40:47.715Z,1.00
2018-11-06T05:41:23.172Z,1.10
2018-11-06T05:41:58.620Z,0.80
2018-11-06T05:42:34.244Z,1.70
2018-11-06T05:43:09.517Z,1.20
2018-11-06T05:43:44.959Z,1.00
2018-11-06T05:44:20.290Z,0.80
2018-11-06T05:44:55.534Z,1.03
2018-11-06T05:45:31.093Z,1.27
2018-11-06T05:46:06.921Z,0.80
2018-11-06T05:46:42.340Z,1.33
2018-11-06T05:47:17.831Z,1.87
2018-11-06T05:47:53.214Z,0.70
2018-11-06T05:48:29.003Z,1.17
2018-11-06T05:49:04.382Z,1.40
2018-11-06T05:49:39.854Z,1.43
2018-11-06T05:50:15.129Z,0.97
2018-11-06T05:50:50.930Z,1.17
2018-11-06T05:51:26.337Z,0.77
2018-11-06T05:52:01.786Z,1.20
2018-11-06T05:52:37.461Z,1.10
2018-11-06T05:53:12.830Z,1.63
2018-11-06T05:53:47.993Z,1.03
2018-11-06T05:54:23.480Z,1.10
2018-11-06T05:54:59.231Z,1.10
2018-11-06T05:55:34.730Z,0.90
2018-11-06T05:56:09.949Z,1.07
2018-11-06T05:56:45.503Z,1.37
2018-11-06T05:57:21.129Z,1.20
2018-11-06T05:57:56.814Z,1.10
2018-11-06T05:58:32.551Z,1.20
2018-11-06T05:59:08.052Z,1.60
2018-11-06T05:59:43.886Z,1.17
2018-11-06T06:00:19.496Z,0.90
2018-11-06T06:00:54.885Z,0.90
2018-11-06T06:01:30.400Z,1.20
2018-11-06T06:02:05.973Z,1.60
2018-11-06T06:02:41.534Z,1.27
2018-11-06T06:03:17.014Z,1.17
2018-11-06T06:03:52.393Z,2.00
2018-11-06T06:04:27.885Z,1.10
2018-11-06T06:05:03.067Z,1.83
2018-11-06T06:05:38.649Z,1.10
2018-11-06T06:06:13.985Z,1.00
2018-11-06T06:06:50.225Z,0.97
2018-11-06T06:07:25.799Z,1.30
2018-11-06T06:08:01.180Z,0.80
2018-11-06T06:08:36.778Z,1.20
2018-11-06T06:09:12.236Z,1.07
2018-11-06T06:09:47.865Z,1.57
2018-11-06T06:10:23.570Z,1.20
2018-11-06T06:10:59.141Z,1.13
2018-11-06T06:11:34.660Z,1.70
2018-11-06T06:12:09.927Z,1.03
2018-11-06T06:12:45.559Z,1.00
2018-11-06T06:13:21.079Z,1.07
2018-11-06T06:13:56.525Z,1.00
2018-11-06T06:14:32.058Z,1.13
2018-11-06T06:15:08.980Z,1.30
2018-11-06T06:15:44.331Z,1.00
2018-11-06T06:16:19.740Z,1.10
2018-11-06T06:16:55.129Z,2.17
2018-11-06T06:17:30.660Z,1.43
2018-11-06T06:18:06.119Z,0.90
2018-11-06T06:18:41.730Z,3.50
2018-11-06T06:19:17.323Z,1.13
2018-11-06T06:19:53.130Z,0.80
2018-11-06T06:20:28.487Z,1.37
2018-11-06T06:21:04.020Z,1.23
2018-11-06T06:21:39.593Z,1.27
2018-11-06T06:22:15.182Z,1.20
2018-11-06T06:22:50.676Z,0.77
2018-11-06T06:23:26.279Z,1.30
2018-11-06T06:24:01.898Z,1.43
2018-11-06T06:24:37.379Z,1.20
2018-11-06T06:25:12.793Z,0.70
2018-11-06T06:25:48.133Z,1.17
2018-11-06T06:26:23.778Z,1.07
2018-11-06T06:26:59.819Z,1.00
2018-11-06T06:27:35.466Z,1.40
2018-11-06T06:28:10.985Z,1.23
2018-11-06T06:28:46.330Z,1.30
2018-11-06T06:29:21.743Z,0.90
2018-11-06T06:29:57.548Z,0.90
2018-11-06T06:30:32.967Z,1.07
2018-11-06T06:31:08.573Z,1.10
2018-11-06T06:31:43.816Z,1.17
2018-11-06T06:32:19.208Z,1.50
2018-11-06T06:32:54.533Z,1.03
2018-11-06T06:33:29.881Z,1.10
2018-11-06T06:34:05.210Z,1.47
2018-11-06T06:34:40.665Z,1.57
2018-11-06T06:35:16.414Z,1.30
2018-11-06T06:35:51.728Z,1.13
2018-11-06T06:36:27.325Z,0.77
2018-11-06T06:37:02.818Z,2.10
2018-11-06T06:37:38.086Z,1.10
2018-11-06T06:38:13.975Z,1.10
2018-11-06T06:38:49.316Z,1.13
2018-11-06T06:39:24.556Z,1.00
2018-11-06T06:40:00.055Z,1.30
2018-11-06T06:40:35.485Z,1.50
2018-11-06T06:41:10.665Z,1.47
2018-11-06T06:41:46.139Z,1.00
2018-11-06T06:42:21.364Z,1.97
2018-11-06T06:42:56.730Z,1.13
2018-11-06T06:43:31.944Z,1.10
2018-11-06T06:44:07.939Z,0.97
2018-11-06T06:44:43.262Z,2.17
2018-11-06T06:45:20.388Z,1.57
2018-11-06T06:45:55.823Z,1.57
2018-11-06T06:46:31.357Z,1.30
2018-11-06T06:47:06.663Z,0.90
2018-11-06T06:47:42.021Z,1.83
2018-11-06T06:48:17.448Z,1.30
2018-11-06T06:48:52.687Z,1.60
2018-11-06T06:49:28.062Z,1.23
2018-11-06T06:50:03.611Z,1.57
2018-11-06T06:50:38.861Z,2.07
2018-11-06T06:51:14.334Z,0.70
2018-11-06T06:51:49.791Z,0.83
2018-11-06T06:52:25.346Z,1.13
2018-11-06T06:53:01.026Z,1.17
2018-11-06T06:53:36.491Z,0.83
2018-11-06T06:54:12.244Z,1.03
2018-11-06T06:54:47.537Z,1.00
2018-11-06T06:55:22.815Z,1.23
2018-11-06T06:55:58.202Z,1.00
2018-11-06T06:56:33.726Z,1.03
2018-11-06T06:57:08.889Z,1.00
2018-11-06T06:57:45.284Z,1.00
2018-11-06T06:58:20.818Z,1.07
2018-11-06T06:58:57.046Z,1.10
2018-11-06T06:59:32.326Z,1.00
2018-11-06T07:00:10.177Z,1.10
2018-11-06T07:00:45.433Z,1.47
2018-11-06T07:01:21.281Z,2.27
2018-11-06T07:01:56.773Z,1.20
2018-11-06T07:02:32.414Z,0.83
2018-11-06T07:03:07.567Z,0.80
2018-11-06T07:03:42.845Z,1.47
2018-11-06T07:04:20.229Z,1.00
2018-11-06T07:04:55.841Z,1.93
2018-11-06T07:05:31.146Z,1.73
2018-11-06T07:06:06.701Z,1.67
2018-11-06T07:06:42.209Z,1.00
2018-11-06T07:07:17.562Z,1.33
2018-11-06T07:07:52.980Z,0.87
2018-11-06T07:08:28.267Z,0.90
2018-11-06T07:09:03.869Z,1.07
2018-11-06T07:09:39.132Z,1.00
2018-11-06T07:10:16.834Z,1.07
2018-11-06T07:10:52.454Z,1.80
2018-11-06T07:11:27.947Z,1.30
2018-11-06T07:12:03.475Z,1.60
2018-11-06T07:12:39.964Z,1.07
2018-11-06T07:13:15.416Z,1.13
2018-11-06T07:13:50.670Z,1.47
2018-11-06T07:14:25.951Z,1.13
2018-11-06T07:15:01.260Z,1.00
2018-11-06T07:15:36.604Z,1.33
2018-11-06T07:16:11.861Z,0.80
2018-11-06T07:16:47.154Z,0.80
2018-11-06T07:17:22.466Z,0.93
2018-11-06T07:17:57.932Z,2.43
2018-11-06T07:18:33.424Z,1.87
2018-11-06T07:19:08.902Z,1.07
2018-11-06T07:19:44.678Z,0.80
2018-11-06T07:20:21.630Z,1.07
2018-11-06T07:20:57.170Z,1.00
2018-11-06T07:21:32.600Z,1.43
2018-11-06T07:22:07.959Z,1.40
2018-11-06T07:22:43.435Z,1.20
2018-11-06T07:23:19.101Z,1.10
2018-11-06T07:23:54.395Z,0.63
2018-11-06T07:24:29.703Z,1.07
2018-11-06T07:25:05.489Z,1.60
2018-11-06T07:25:40.807Z,1.20
2018-11-06T07:26:16.216Z,1.03
2018-11-06T07:26:51.520Z,1.10
2018-11-06T07:27:27.071Z,1.13
2018-11-06T07:28:02.416Z,0.83
2018-11-06T07:28:37.911Z,1.10
2018-11-06T07:29:13.293Z,1.10
2018-11-06T07:29:48.952Z,1.03
2018-11-06T07:30:24.761Z,1.20
2018-11-06T07:31:00.302Z,0.90
2018-11-06T07:31:35.671Z,1.00
2018-11-06T07:32:11.086Z,1.20
2018-11-06T07:32:46.815Z,1.33
2018-11-06T07:33:22.242Z,1.10
2018-11-06T07:33:57.768Z,0.77
2018-11-06T07:34:33.221Z,1.00
2018-11-06T07:35:09.815Z,1.10
2018-11-06T07:35:45.440Z,1.33
2018-11-06T07:36:20.607Z,1.40
2018-11-06T07:36:56.053Z,1.30
2018-11-06T07:37:31.537Z,0.90
2018-11-06T07:38:06.883Z,0.87
2018-11-06T07:38:42.498Z,0.80
2018-11-06T07:39:17.938Z,1.47
2018-11-06T07:39:53.352Z,1.07
2018-11-06T07:40:28.740Z,2.27
2018-11-06T07:41:04.202Z,1.03
2018-11-06T07:41:40.079Z,0.90
2018-11-06T07:42:15.461Z,1.97
2018-11-06T07:42:50.947Z,1.30
2018-11-06T07:43:26.392Z,1.10
2018-11-06T07:44:01.836Z,0.90
2018-11-06T07:44:37.478Z,0.90
2018-11-06T07:45:16.516Z,1.00
2018-11-06T07:45:51.857Z,1.00
2018-11-06T07:46:27.249Z,0.70
2018-11-06T07:47:02.782Z,1.63
2018-11-06T07:47:38.188Z,2.50
2018-11-06T07:48:13.536Z,1.43
2018-11-06T07:48:48.941Z,1.63
2018-11-06T07:49:24.319Z,0.90
2018-11-06T07:49:59.798Z,1.53
2018-11-06T07:50:35.701Z,1.17
2018-11-06T07:51:11.061Z,1.00
2018-11-06T07:51:46.376Z,0.90
2018-11-06T07:52:21.766Z,2.07
2018-11-06T07:52:57.055Z,1.73